Time;durP1;ratioP1;P1;durP2;ratioP2;P2;SDS_P1;SDS_P2;PMS_P1;PMS_P2;Temp;Humidity;BMP_temperature;BMP_pressure;BME280_temperature;BME280_humidity;BME280_pressure;Samples;Min_cycle;Max_cycle;Signal;HPM_P1;HPM_P2
2021/08/03 00:00:59;;;;;;;26.63;24.23;;;;;;;12.02;100.00;98985.94;2080759;28;20603;-77
2021/08/03 00:01:59;;;;;;;26.77;24.48;;;;;;;12.04;100.00;98986.41;2080795;28;20670;-77
2021/08/03 00:03:05;;;;;;;26.80;24.20;;;;;;;12.03;100.00;98982.16;2080783;28;20630;-78
2021/08/03 00:04:10;;;;;;;26.83;24.35;;;;;;;12.01;100.00;98982.47;2080779;28;20993;-77
2021/08/03 00:05:17;;;;;;;27.52;25.13;;;;;;;12.02;100.00;98977.94;2087118;28;20225;-78
2021/08/03 00:06:19;;;;;;;26.85;24.45;;;;;;;12.02;100.00;98977.94;2089733;28;20693;-77
2021/08/03 00:07:20;;;;;;;26.75;24.17;;;;;;;12.04;100.00;98981.06;2089618;28;20234;-77
2021/08/03 00:08:26;;;;;;;28.55;25.83;;;;;;;12.01;100.00;98976.34;2089708;28;20229;-78
2021/08/03 00:09:31;;;;;;;27.75;25.17;;;;;;;12.00;100.00;98980.91;2089428;28;20675;-77
2021/08/03 00:10:32;;;;;;;27.85;25.35;;;;;;;12.00;100.00;98977.44;2088865;28;20214;-77
2021/08/03 00:11:33;;;;;;;26.20;24.00;;;;;;;12.00;100.00;98978.25;2089003;28;20229;-77
2021/08/03 00:12:35;;;;;;;25.98;23.77;;;;;;;12.00;100.00;98985.47;2089773;28;20305;-77
2021/08/03 00:13:37;;;;;;;28.00;25.52;;;;;;;11.98;100.00;98971.59;2088873;28;20710;-78
2021/08/03 00:14:42;;;;;;;27.52;24.77;;;;;;;11.99;100.00;98975.84;2079738;28;20222;-77
2021/08/03 00:15:44;;;;;;;27.15;24.65;;;;;;;11.97;100.00;98967.34;2088918;28;20233;-77
2021/08/03 00:16:45;;;;;;;26.75;24.15;;;;;;;11.97;100.00;98972.69;2089634;28;20246;-76
2021/08/03 00:17:48;;;;;;;27.07;24.67;;;;;;;11.97;100.00;98967.34;2089728;28;20225;-78
2021/08/03 00:18:48;;;;;;;27.25;24.75;;;;;;;11.97;100.00;98972.69;2088827;28;20222;-77
2021/08/03 00:19:50;;;;;;;27.07;24.77;;;;;;;11.97;100.00;98976.16;2089210;28;20309;-77
2021/08/03 00:20:51;;;;;;;29.60;27.00;;;;;;;11.95;100.00;98981.03;2088939;28;20219;-77
2021/08/03 00:21:53;;;;;;;28.53;26.00;;;;;;;11.97;100.00;98967.34;2089363;28;20229;-75
2021/08/03 00:23:00;;;;;;;28.27;25.77;;;;;;;11.93;100.00;98974.41;2089606;28;20219;-77
2021/08/03 00:24:04;;;;;;;27.55;25.25;;;;;;;11.91;100.00;98969.38;2089022;28;20568;-77
2021/08/03 00:25:05;;;;;;;27.83;25.45;;;;;;;11.89;100.00;98976.91;2080835;28;20307;-77
2021/08/03 00:26:07;;;;;;;26.80;24.63;;;;;;;11.89;100.00;98971.56;2088818;28;20736;-77
2021/08/03 00:27:09;;;;;;;26.80;24.55;;;;;;;11.87;100.00;98971.84;2089264;28;20222;-77
2021/08/03 00:28:11;;;;;;;27.80;25.20;;;;;;;11.84;100.00;98972.47;2088832;28;20273;-77
2021/08/03 00:29:14;;;;;;;26.15;23.85;;;;;;;11.82;100.00;98969.34;2088959;28;20237;-77
2021/08/03 00:30:16;;;;;;;25.60;23.35;;;;;;;11.78;100.00;98968.31;2088749;28;20627;-77
2021/08/03 00:31:18;;;;;;;26.58;23.90;;;;;;;11.76;100.00;98970.53;2088756;28;20301;-77
2021/08/03 00:32:20;;;;;;;26.13;24.02;;;;;;;11.72;100.00;98966.88;2080955;28;20215;-78
2021/08/03 00:33:20;;;;;;;26.77;24.55;;;;;;;11.73;100.00;98968.47;2088710;28;20231;-78
2021/08/03 00:34:22;;;;;;;27.33;24.93;;;;;;;11.70;100.00;98966.38;2088814;28;20226;-77
2021/08/03 00:35:23;;;;;;;26.40;24.10;;;;;;;11.66;100.00;98973.44;2088358;28;20668;-76
2021/08/03 00:36:26;;;;;;;26.80;24.40;;;;;;;11.64;100.00;98964.94;2089150;28;20632;-77
2021/08/03 00:37:28;;;;;;;27.92;25.45;;;;;;;11.66;100.00;98970.78;2080643;28;20227;-77
2021/08/03 00:38:29;;;;;;;27.70;25.03;;;;;;;11.62;100.00;98967.13;2080541;28;20220;-77
2021/08/03 00:39:32;;;;;;;27.65;25.00;;;;;;;11.63;100.00;98974.03;2080516;28;20314;-77
2021/08/03 00:40:36;;;;;;;28.90;26.08;;;;;;;11.62;100.00;98972.47;2088719;28;20218;-77
2021/08/03 00:41:40;;;;;;;27.52;25.02;;;;;;;11.64;100.00;98972.97;2088546;28;20223;-75
2021/08/03 00:42:42;;;;;;;26.42;23.95;;;;;;;11.61;100.00;98971.69;2089449;28;20415;-78
2021/08/03 00:43:44;;;;;;;27.60;25.13;;;;;;;11.62;100.00;98972.47;2088713;28;20227;-78
2021/08/03 00:44:47;;;;;;;28.63;25.63;;;;;;;11.61;100.00;98971.69;2080422;28;20223;-77
2021/08/03 00:45:53;;;;;;;27.00;24.70;;;;;;;11.59;100.00;98976.53;2074538;28;20306;-77
2021/08/03 00:46:55;;;;;;;30.33;25.47;;;;;;;11.61;100.00;98977.03;2072160;28;20224;-77
2021/08/03 00:47:56;;;;;;;28.25;25.52;;;;;;;11.60;100.00;98970.09;2080528;28;20697;-77
2021/08/03 00:48:57;;;;;;;27.77;25.13;;;;;;;11.63;100.00;98979.38;2081327;28;20597;-77
2021/08/03 00:49:58;;;;;;;27.90;25.13;;;;;;;11.64;100.00;98981.00;2081158;28;20231;-77
2021/08/03 00:51:00;;;;;;;27.03;24.53;;;;;;;11.65;100.00;98981.78;2080401;28;20220;-77
2021/08/03 00:52:02;;;;;;;28.17;25.67;;;;;;;11.65;100.00;98979.88;2080531;28;20736;-77
2021/08/03 00:53:05;;;;;;;26.65;24.25;;;;;;;11.73;100.00;98975.69;2080351;28;20227;-77
2021/08/03 00:54:06;;;;;;;27.25;25.00;;;;;;;11.70;100.00;98977.06;2080359;28;20219;-77
2021/08/03 00:55:11;;;;;;;27.10;24.60;;;;;;;11.69;100.00;98982.72;2086343;28;20234;-77
2021/08/03 00:56:13;;;;;;;27.48;24.98;;;;;;;11.70;100.00;98985.09;2088562;28;20225;-77
2021/08/03 00:57:16;;;;;;;27.23;24.60;;;;;;;11.67;100.00;98983.03;2080424;28;20301;-78
2021/08/03 00:58:18;;;;;;;28.23;25.58;;;;;;;11.69;100.00;98983.53;2080616;28;20223;-77
2021/08/03 00:59:20;;;;;;;26.65;24.30;;;;;;;11.71;100.00;98983.22;2080358;28;20231;-77
2021/08/03 01:00:24;;;;;;;28.08;25.17;;;;;;;11.71;100.00;98984.00;2088235;28;20726;-77
2021/08/03 01:01:27;;;;;;;28.55;25.90;;;;;;;11.72;100.00;98977.56;2089217;28;20279;-77
2021/08/03 01:02:29;;;;;;;27.92;25.40;;;;;;;11.72;100.00;98979.44;2088596;28;20577;-77
2021/08/03 01:03:34;;;;;;;27.98;25.13;;;;;;;11.71;100.00;98984.00;2088671;28;20633;-77
2021/08/03 01:04:37;;;;;;;28.30;25.58;;;;;;;11.72;100.00;98977.56;2088311;28;20223;-77
2021/08/03 01:05:53;;;;;;;27.42;24.92;;;;;;;11.75;100.00;98981.53;2080783;28;20227;-77
2021/08/03 01:07:03;;;;;;;28.80;26.25;;;;;;;11.71;100.00;98975.19;2081215;28;20223;-76
2021/08/03 01:08:11;;;;;;;28.30;25.73;;;;;;;11.68;100.00;98978.47;2081596;28;20219;-78
2021/08/03 01:09:18;;;;;;;28.05;25.58;;;;;;;11.66;100.00;98981.47;2088255;28;20234;-77
2021/08/03 01:10:29;;;;;;;28.33;25.33;;;;;;;11.63;100.00;98974.03;2088502;28;20697;-78
2021/08/03 01:11:39;;;;;;;26.88;24.48;;;;;;;11.61;100.00;98966.31;2073645;28;20250;-77
2021/08/03 01:12:49;;;;;;;28.88;26.17;;;;;;;11.66;100.00;98968.09;2078958;28;20297;-77
2021/08/03 01:13:56;;;;;;;26.63;24.42;;;;;;;11.61;100.00;98969.00;2081487;28;20276;-78
2021/08/03 01:15:03;;;;;;;27.55;25.08;;;;;;;11.58;100.00;98977.63;2073562;28;20229;-77
2021/08/03 01:16:09;;;;;;;26.50;24.30;;;;;;;11.55;100.00;98972.91;2073116;28;20228;-78
2021/08/03 01:17:14;;;;;;;27.25;24.92;;;;;;;11.54;100.00;98970.53;2072332;28;20761;-77
2021/08/03 01:18:20;;;;;;;26.45;23.75;;;;;;;11.52;100.00;98978.06;2080284;28;20709;-78
2021/08/03 01:19:23;;;;;;;26.65;24.17;;;;;;;11.51;100.00;98973.81;2080774;28;20685;-77
2021/08/03 01:20:37;;;;;;;27.52;25.00;;;;;;;11.50;100.00;98969.56;2088259;28;20684;-77
2021/08/03 01:21:50;;;;;;;28.35;25.75;;;;;;;11.51;100.00;98960.44;2081328;28;20622;-77
2021/08/03 01:23:27;;;;;;;27.35;25.05;;;;;;;11.55;100.00;98967.56;2073719;28;20220;-77
2021/08/03 01:24:40;;;;;;;28.60;25.70;;;;;;;11.56;100.00;98968.34;2081963;28;20700;-77
2021/08/03 01:25:54;;;;;;;27.85;25.50;;;;;;;11.56;100.00;98965.69;2086781;28;20231;-76
2021/08/03 01:27:14;;;;;;;27.70;25.40;;;;;;;11.54;100.00;98968.63;2074655;28;20224;-77
2021/08/03 01:28:22;;;;;;;27.27;24.75;;;;;;;11.57;100.00;98962.69;2079380;28;20219;-77
2021/08/03 01:29:27;;;;;;;26.80;24.48;;;;;;;11.56;100.00;98957.66;2087895;28;20223;-77
2021/08/03 01:30:28;;;;;;;27.50;24.58;;;;;;;11.56;100.00;98957.66;2088263;28;20688;-77
2021/08/03 01:31:31;;;;;;;26.40;23.97;;;;;;;11.55;100.00;98958.72;2080404;28;20592;-77
2021/08/03 01:32:34;;;;;;;26.83;24.10;;;;;;;11.57;100.00;98964.59;2088307;28;20222;-77
2021/08/03 01:33:38;;;;;;;25.92;23.75;;;;;;;11.56;100.00;98957.66;2088160;28;20226;-77
2021/08/03 01:34:45;;;;;;;25.83;23.65;;;;;;;11.56;100.00;98955.00;2080264;28;20258;-77
2021/08/03 01:35:49;;;;;;;26.45;23.85;;;;;;;11.54;100.00;98957.16;2088490;28;20253;-77
2021/08/03 01:36:51;;;;;;;27.02;24.60;;;;;;;11.53;100.00;98969.72;2088724;28;20223;-78
2021/08/03 01:37:53;;;;;;;26.63;24.38;;;;;;;11.48;100.00;98961.84;2088202;28;20611;-76
2021/08/03 01:38:57;;;;;;;26.77;24.02;;;;;;;11.49;100.00;98968.78;2088370;28;20222;-77
2021/08/03 01:40:04;;;;;;;27.98;25.33;;;;;;;11.49;100.00;98959.97;2080179;28;20265;-77
2021/08/03 01:41:06;;;;;;;28.85;26.08;;;;;;;11.46;100.00;98953.34;2088219;28;20369;-77
2021/08/03 01:42:11;;;;;;;28.60;26.10;;;;;;;11.47;100.00;98962.16;2080182;28;20219;-77
2021/08/03 01:43:13;;;;;;;29.55;26.75;;;;;;;11.44;100.00;98962.75;2080202;28;20279;-77
2021/08/03 01:44:17;;;;;;;28.90;26.50;;;;;;;11.45;100.00;98961.66;2080030;28;20224;-77
2021/08/03 01:45:20;;;;;;;29.30;26.45;;;;;;;11.45;100.00;98964.31;2080490;28;20223;-77
2021/08/03 01:46:23;;;;;;;29.35;26.90;;;;;;;11.49;100.00;98962.66;2079784;28;20242;-77
2021/08/03 01:47:25;;;;;;;28.83;26.33;;;;;;;11.50;100.00;98969.56;2079761;28;20234;-77
2021/08/03 01:48:28;;;;;;;29.60;26.88;;;;;;;11.52;100.00;98964.69;2088268;28;20254;-76
2021/08/03 01:49:35;;;;;;;27.65;25.15;;;;;;;11.50;100.00;98969.56;2088321;28;20688;-77
2021/08/03 01:50:38;;;;;;;28.48;25.88;;;;;;;11.48;100.00;98971.75;2087719;28;20223;-75
2021/08/03 01:51:43;;;;;;;27.65;25.42;;;;;;;11.45;100.00;98961.66;2080409;28;20309;-78
2021/08/03 01:52:47;;;;;;;27.48;25.08;;;;;;;11.45;100.00;98972.34;2080156;28;20752;-77
2021/08/03 01:53:54;;;;;;;27.90;25.55;;;;;;;11.43;100.00;98964.63;2087939;28;20670;-77
2021/08/03 01:54:56;;;;;;;27.40;25.10;;;;;;;11.44;100.00;98970.78;2088193;28;20249;-77
2021/08/03 01:56:03;;;;;;;27.70;25.15;;;;;;;11.43;100.00;98967.31;2080744;28;20670;-77
2021/08/03 01:57:06;;;;;;;26.77;24.45;;;;;;;11.45;100.00;98967.00;2080385;28;20737;-77
2021/08/03 01:58:10;;;;;;;28.02;25.52;;;;;;;11.46;100.00;98974.72;2087966;28;20219;-76
2021/08/03 01:59:25;;;;;;;27.80;25.30;;;;;;;11.45;100.00;98962.44;2081403;28;20237;-76
2021/08/03 02:00:27;;;;;;;28.58;26.10;;;;;;;11.47;100.00;98970.19;2072044;28;20355;-77
2021/08/03 02:01:39;;;;;;;27.48;25.02;;;;;;;11.45;100.00;98973.13;2078886;28;20361;-77
2021/08/03 02:02:40;;;;;;;26.25;24.02;;;;;;;11.45;100.00;98970.47;2079853;28;20713;-78
2021/08/03 02:03:44;;;;;;;27.30;24.70;;;;;;;11.45;100.00;98967.00;2088073;28;20571;-76
2021/08/03 02:04:48;;;;;;;26.50;24.30;;;;;;;11.44;100.00;98965.44;2087996;28;20230;-77
2021/08/03 02:05:52;;;;;;;26.70;24.30;;;;;;;11.43;100.00;98982.53;2079741;28;20223;-77
2021/08/03 02:06:59;;;;;;;27.75;25.02;;;;;;;11.42;100.00;98967.63;2080519;28;20666;-77
2021/08/03 02:08:01;;;;;;;27.02;24.52;;;;;;;11.41;100.00;98976.72;2079582;28;20242;-78
2021/08/03 02:09:05;;;;;;;27.35;24.95;;;;;;;11.39;100.00;98973.56;2079986;28;20295;-77
2021/08/03 02:10:09;;;;;;;27.50;25.10;;;;;;;11.39;100.00;98973.56;2079796;28;20223;-77
2021/08/03 02:11:10;;;;;;;27.25;24.67;;;;;;;11.42;100.00;98976.41;2079874;28;20230;-77
2021/08/03 02:12:12;;;;;;;27.20;24.80;;;;;;;11.42;100.00;98975.63;2079912;28;20601;-77
2021/08/03 02:13:15;;;;;;;27.27;24.88;;;;;;;11.43;100.00;98977.22;2079903;28;20226;-77
2021/08/03 02:14:21;;;;;;;27.45;24.60;;;;;;;11.42;100.00;98980.97;2087979;28;20592;-77
2021/08/03 02:15:39;;;;;;;26.55;24.15;;;;;;;11.43;100.00;98985.22;2075755;28;20227;-76
2021/08/03 02:16:43;;;;;;;26.83;24.42;;;;;;;11.41;100.00;98987.41;2079737;28;20231;-77
2021/08/03 02:17:47;;;;;;;26.75;24.40;;;;;;;11.39;100.00;98987.72;2072191;28;20220;-77
2021/08/03 02:18:59;;;;;;;27.52;25.23;;;;;;;11.39;100.00;98976.25;2073343;28;20648;-77
2021/08/03 02:20:07;;;;;;;27.30;24.80;;;;;;;11.40;100.00;98983.94;2080536;28;20215;-77
2021/08/03 02:21:12;;;;;;;27.85;25.35;;;;;;;11.38;100.00;98982.66;2087663;28;20250;-77
2021/08/03 02:22:14;;;;;;;26.95;24.67;;;;;;;11.37;100.00;98986.41;2080204;28;20220;-77
2021/08/03 02:23:26;;;;;;;27.35;24.88;;;;;;;11.37;100.00;98983.75;2080841;28;20226;-77
2021/08/03 02:24:32;;;;;;;26.67;24.48;;;;;;;11.42;100.00;98997.00;2080566;28;20247;-77
2021/08/03 02:25:34;;;;;;;26.63;24.33;;;;;;;11.39;100.00;98993.06;2079754;28;20225;-77
2021/08/03 02:26:35;;;;;;;27.05;24.70;;;;;;;11.39;100.00;98989.59;2079923;28;20542;-77
2021/08/03 02:27:38;;;;;;;27.02;24.63;;;;;;;11.35;100.00;98991.28;2079166;28;20223;-76
2021/08/03 02:28:39;;;;;;;26.52;24.10;;;;;;;11.35;100.00;98994.75;2079760;28;20284;-77
2021/08/03 02:29:44;;;;;;;25.75;23.52;;;;;;;11.33;100.00;98989.72;2087999;28;20226;-77
2021/08/03 02:30:50;;;;;;;25.42;23.23;;;;;;;11.32;100.00;98985.47;2080177;28;20247;-77
2021/08/03 02:31:58;;;;;;;26.05;23.75;;;;;;;11.31;100.00;98991.91;2087702;28;20230;-76
2021/08/03 02:33:04;;;;;;;26.70;24.48;;;;;;;11.32;100.00;98998.81;2087941;28;20313;-77
2021/08/03 02:34:08;;;;;;;26.75;24.08;;;;;;;11.31;100.00;98989.22;2080429;28;20220;-77
2021/08/03 02:35:13;;;;;;;26.17;23.88;;;;;;;11.33;100.00;98986.25;2079599;28;20302;-77
2021/08/03 02:36:20;;;;;;;26.58;24.27;;;;;;;11.32;100.00;98987.34;2080458;28;20218;-77
2021/08/03 02:37:28;;;;;;;27.63;24.83;;;;;;;11.30;100.00;98981.53;2087374;28;20568;-77
2021/08/03 02:38:34;;;;;;;27.67;24.88;;;;;;;11.31;100.00;98989.22;2088110;28;20292;-77
2021/08/03 02:39:36;;;;;;;26.58;24.08;;;;;;;11.30;100.00;98989.53;2088163;28;20218;-77
2021/08/03 02:40:38;;;;;;;28.13;25.58;;;;;;;11.27;100.00;98988.25;2079401;28;20227;-76
2021/08/03 02:41:47;;;;;;;27.88;25.50;;;;;;;11.28;100.00;98991.69;2081013;28;20705;-78
2021/08/03 02:42:51;;;;;;;28.98;26.08;;;;;;;11.26;100.00;98985.88;2079943;28;20589;-77
2021/08/03 02:43:52;;;;;;;27.63;25.13;;;;;;;11.27;100.00;98993.56;2087397;28;20253;-75
2021/08/03 02:44:59;;;;;;;28.17;25.88;;;;;;;11.26;100.00;98988.53;2088849;28;20230;-77
2021/08/03 02:46:03;;;;;;;27.13;24.77;;;;;;;11.25;100.00;98990.44;2088689;28;20218;-76
2021/08/03 02:47:17;;;;;;;28.75;26.17;;;;;;;11.26;100.00;98986.66;2088919;28;20630;-77
2021/08/03 02:48:20;;;;;;;28.13;25.60;;;;;;;11.24;100.00;98986.19;2080408;28;20708;-78
2021/08/03 02:49:34;;;;;;;28.30;25.90;;;;;;;11.25;100.00;98993.09;2079604;28;20238;-77
2021/08/03 02:50:35;;;;;;;28.65;25.92;;;;;;;11.25;100.00;98989.63;2089385;28;20256;-77
2021/08/03 02:51:39;;;;;;;28.50;26.00;;;;;;;11.25;100.00;98994.97;2090397;28;20222;-78
2021/08/03 02:52:42;;;;;;;29.00;26.40;;;;;;;11.25;100.00;98998.44;2090341;28;20684;-78
2021/08/03 02:53:46;;;;;;;29.30;26.70;;;;;;;11.24;100.00;98999.53;2089502;28;20229;-77
2021/08/03 02:54:53;;;;;;;28.85;26.50;;;;;;;11.25;100.00;99000.31;2081930;28;20634;-78
2021/08/03 02:55:58;;;;;;;28.77;26.25;;;;;;;11.24;100.00;98999.53;2081814;28;20268;-76
2021/08/03 02:57:02;;;;;;;28.15;25.75;;;;;;;11.22;100.00;98999.06;2089687;28;20756;-77
2021/08/03 02:58:06;;;;;;;29.35;26.73;;;;;;;11.25;100.00;98997.66;2089745;28;20228;-77
2021/08/03 02:59:10;;;;;;;28.75;26.38;;;;;;;11.23;100.00;98987.28;2075088;28;20286;-75
2021/08/03 03:00:13;;;;;;;29.35;26.30;;;;;;;11.22;100.00;98996.38;2082642;28;20235;-77
2021/08/03 03:01:17;;;;;;;29.23;26.83;;;;;;;11.26;100.00;99002.69;2073063;28;20566;-77
2021/08/03 03:02:20;;;;;;;29.85;26.73;;;;;;;11.26;100.00;99000.00;2081193;28;20223;-77
2021/08/03 03:03:29;;;;;;;29.40;27.13;;;;;;;11.23;100.00;98997.97;2088104;28;20321;-77
2021/08/03 03:04:34;;;;;;;29.60;26.63;;;;;;;11.20;100.00;99003.88;2089480;28;20222;-78
2021/08/03 03:05:39;;;;;;;30.50;27.90;;;;;;;11.18;100.00;98998.06;2089346;28;20648;-76
2021/08/03 03:06:42;;;;;;;29.77;26.85;;;;;;;11.18;100.00;98994.59;2089269;28;20231;-77
2021/08/03 03:07:48;;;;;;;29.42;26.73;;;;;;;11.17;100.00;99004.50;2081231;28;20223;-77
2021/08/03 03:08:50;;;;;;;28.55;25.92;;;;;;;11.15;100.00;98996.00;2089979;28;20215;-77
2021/08/03 03:09:53;;;;;;;29.05;26.30;;;;;;;11.11;100.00;99000.34;2089338;28;20629;-78
2021/08/03 03:10:56;;;;;;;29.48;24.92;;;;;;;11.11;100.00;99004.91;2081340;28;20250;-77
2021/08/03 03:11:57;;;;;;;27.88;25.52;;;;;;;11.08;100.00;98997.50;2089501;28;20234;-77
2021/08/03 03:13:02;;;;;;;27.77;25.13;;;;;;;11.04;100.00;99000.00;2089426;28;20218;-77
2021/08/03 03:14:03;;;;;;;29.73;26.88;;;;;;;11.02;100.00;99000.25;2081734;28;20272;-78
2021/08/03 03:15:09;;;;;;;27.00;24.70;;;;;;;11.02;100.00;99002.16;2081101;28;20223;-77
2021/08/03 03:16:12;;;;;;;28.88;26.50;;;;;;;11.00;100.00;99007.00;2081462;28;20238;-77
2021/08/03 03:17:17;;;;;;;28.25;25.70;;;;;;;10.97;100.00;99007.63;2081343;28;20610;-77
2021/08/03 03:18:19;;;;;;;28.65;26.25;;;;;;;10.94;100.00;98998.31;2089638;28;20571;-78
2021/08/03 03:19:21;;;;;;;27.42;24.92;;;;;;;10.92;100.00;99003.16;2089447;28;20236;-77
2021/08/03 03:20:22;;;;;;;27.48;25.00;;;;;;;10.93;100.00;99004.72;2074733;28;20303;-76
2021/08/03 03:21:26;;;;;;;28.92;25.83;;;;;;;10.90;100.00;99007.22;2074862;28;20234;-77
2021/08/03 03:22:28;;;;;;;27.90;25.55;;;;;;;10.90;100.00;99009.88;2081004;28;20223;-78
2021/08/03 03:23:32;;;;;;;27.33;24.77;;;;;;;10.88;100.00;99015.53;2072909;28;20220;-78
2021/08/03 03:24:34;;;;;;;27.90;24.92;;;;;;;10.86;100.00;99015.06;2073158;28;20220;-77
2021/08/03 03:25:37;;;;;;;26.77;24.23;;;;;;;10.88;100.00;99020.09;2073183;28;20223;-78
2021/08/03 03:26:37;;;;;;;28.15;25.67;;;;;;;10.86;100.00;99009.72;2076458;28;20311;-77
2021/08/03 03:27:45;;;;;;;27.65;25.23;;;;;;;10.88;100.00;99017.41;2073588;28;20220;-78
2021/08/03 03:28:46;;;;;;;26.00;23.67;;;;;;;10.88;100.00;99012.06;2072927;28;20247;-78
2021/08/03 03:29:49;;;;;;;26.95;24.35;;;;;;;10.90;100.00;99017.91;2072955;28;20224;-77
2021/08/03 03:30:51;;;;;;;26.08;23.73;;;;;;;10.90;100.00;99021.34;2072920;28;20231;-78
2021/08/03 03:31:54;;;;;;;26.15;23.90;;;;;;;10.93;100.00;99033.31;2076694;28;20227;-76
2021/08/03 03:33:02;;;;;;;26.50;23.67;;;;;;;10.91;100.00;99022.16;2081086;28;20247;-78
2021/08/03 03:34:07;;;;;;;25.88;23.52;;;;;;;10.96;100.00;99027.38;2082133;28;20231;-78
2021/08/03 03:35:09;;;;;;;26.60;24.23;;;;;;;11.00;100.00;99023.03;2084599;28;20584;-77
2021/08/03 03:36:12;;;;;;;26.92;24.17;;;;;;;11.04;100.00;99026.69;2072704;28;20224;-77
2021/08/03 03:37:14;;;;;;;26.10;23.80;;;;;;;11.03;100.00;99025.09;2075086;28;20236;-77
2021/08/03 03:38:18;;;;;;;26.13;23.63;;;;;;;11.03;100.00;99020.56;2080940;28;20223;-78
2021/08/03 03:39:19;;;;;;;26.60;24.00;;;;;;;11.04;100.00;99021.34;2080935;28;20223;-77
2021/08/03 03:40:29;;;;;;;25.85;23.48;;;;;;;11.06;100.00;99029.84;2087636;28;20673;-77
2021/08/03 03:41:32;;;;;;;25.65;23.13;;;;;;;11.07;100.00;99027.97;2089242;28;20272;-78
2021/08/03 03:42:35;;;;;;;26.90;23.95;;;;;;;11.08;100.00;99022.31;2081485;28;20222;-77
2021/08/03 03:43:37;;;;;;;26.40;23.90;;;;;;;11.10;100.00;99036.16;2088861;28;20277;-77
2021/08/03 03:44:40;;;;;;;26.40;23.83;;;;;;;11.11;100.00;99032.38;2081184;28;20250;-76
2021/08/03 03:45:42;;;;;;;25.50;23.20;;;;;;;11.13;100.00;99032.91;2089210;28;20238;-78
2021/08/03 03:46:48;;;;;;;25.90;23.40;;;;;;;11.13;100.00;99034.78;2080977;28;20257;-77
2021/08/03 03:47:54;;;;;;;27.50;24.50;;;;;;;11.14;100.00;99036.34;2081767;28;20219;-77
2021/08/03 03:49:04;;;;;;;26.67;23.70;;;;;;;11.15;100.00;99032.59;2088991;28;20222;-78
2021/08/03 03:50:09;;;;;;;27.85;24.95;;;;;;;11.16;100.00;99034.97;2089204;28;20693;-78
2021/08/03 03:51:15;;;;;;;29.02;25.92;;;;;;;11.16;100.00;99034.97;2080844;28;20229;-78
2021/08/03 03:52:19;;;;;;;27.50;24.73;;;;;;;11.19;100.00;99036.22;2089243;28;20218;-78
2021/08/03 03:53:22;;;;;;;27.52;24.70;;;;;;;11.21;100.00;99036.75;2088993;28;20223;-77
2021/08/03 03:54:26;;;;;;;27.58;25.27;;;;;;;11.23;100.00;99043.34;2080662;28;20239;-77
2021/08/03 03:55:29;;;;;;;28.40;25.80;;;;;;;11.29;100.00;99044.03;2089514;28;20235;-77
2021/08/03 03:56:32;;;;;;;28.10;25.65;;;;;;;11.29;100.00;99042.16;2089058;28;20271;-78
2021/08/03 03:57:35;;;;;;;27.35;24.95;;;;;;;11.31;100.00;99042.66;2081187;28;20310;-77
2021/08/03 03:58:39;;;;;;;27.25;24.75;;;;;;;11.35;100.00;99047.38;2089173;28;20229;-77
2021/08/03 03:59:42;;;;;;;28.52;25.73;;;;;;;11.35;100.00;99045.50;2080731;28;20297;-77
2021/08/03 04:00:43;;;;;;;27.75;25.10;;;;;;;11.37;100.00;99043.31;2080393;28;20223;-78
2021/08/03 04:01:45;;;;;;;25.97;23.67;;;;;;;11.39;100.00;99043.81;2080606;28;20235;-78
2021/08/03 04:02:47;;;;;;;26.15;23.70;;;;;;;11.40;100.00;99040.06;2081002;28;20227;-77
2021/08/03 04:03:55;;;;;;;26.55;23.98;;;;;;;11.43;100.00;99038.66;2075007;28;20641;-76
2021/08/03 04:04:59;;;;;;;26.65;23.98;;;;;;;11.44;100.00;99038.34;2080733;28;20571;-77
2021/08/03 04:06:02;;;;;;;27.13;24.45;;;;;;;11.45;100.00;99036.47;2080789;28;20219;-78
2021/08/03 04:07:02;;;;;;;26.67;24.00;;;;;;;11.45;100.00;99041.81;2072439;28;20595;-77
2021/08/03 04:08:07;;;;;;;27.02;24.13;;;;;;;11.46;100.00;99038.03;2072418;28;20722;-77
2021/08/03 04:09:16;;;;;;;26.75;23.52;;;;;;;11.48;100.00;99041.22;2079045;28;20239;-77
2021/08/03 04:10:19;;;;;;;27.27;24.88;;;;;;;11.48;100.00;99049.22;2081744;28;20224;-77
2021/08/03 04:11:21;;;;;;;27.58;24.88;;;;;;;11.49;100.00;99042.78;2088148;28;20287;-76
2021/08/03 04:12:28;;;;;;;26.80;24.50;;;;;;;11.49;100.00;99037.44;2088889;28;20227;-78
2021/08/03 04:13:29;;;;;;;26.23;23.88;;;;;;;11.50;100.00;99039.03;2088980;28;20218;-77
2021/08/03 04:14:31;;;;;;;26.23;23.90;;;;;;;11.53;100.00;99051.78;2080640;28;20224;-77
2021/08/03 04:15:37;;;;;;;25.95;23.52;;;;;;;11.54;100.00;99048.78;2088831;28;20223;-76
2021/08/03 04:16:40;;;;;;;26.75;24.05;;;;;;;11.55;100.00;99047.72;2088855;28;20234;-76
2021/08/03 04:17:41;;;;;;;25.85;23.63;;;;;;;11.57;100.00;99058.09;2088920;28;20242;-77
2021/08/03 04:18:43;;;;;;;26.55;24.13;;;;;;;11.58;100.00;99057.00;2089008;28;20230;-77
2021/08/03 04:19:43;;;;;;;28.55;24.80;;;;;;;11.60;100.00;99057.50;2088723;28;20230;-78
2021/08/03 04:20:47;;;;;;;26.63;24.03;;;;;;;11.61;100.00;99048.38;2088838;28;20222;-78
2021/08/03 04:21:47;;;;;;;27.20;24.30;;;;;;;11.60;100.00;99049.47;2080736;28;20573;-77
2021/08/03 04:22:49;;;;;;;27.47;24.47;;;;;;;11.62;100.00;99055.31;2088948;28;20265;-77
2021/08/03 04:23:50;;;;;;;27.33;24.52;;;;;;;11.61;100.00;99051.06;2089659;28;20265;-77
2021/08/03 04:24:51;;;;;;;27.43;24.83;;;;;;;11.60;100.00;99044.91;2089759;28;20223;-77
2021/08/03 04:25:52;;;;;;;28.77;25.85;;;;;;;11.67;100.00;99055.19;2089353;28;20250;-77
2021/08/03 04:26:54;;;;;;;27.57;24.80;;;;;;;11.63;100.00;99053.41;2089631;28;20226;-77
2021/08/03 04:27:54;;;;;;;27.92;25.40;;;;;;;11.63;100.00;99042.72;2088775;28;20595;-77
2021/08/03 04:28:56;;;;;;;26.73;24.07;;;;;;;11.61;100.00;99041.16;2088808;28;20253;-77
2021/08/03 04:29:56;;;;;;;26.45;23.83;;;;;;;11.63;100.00;99050.75;2089619;28;20649;-77
2021/08/03 04:30:59;;;;;;;26.53;23.70;;;;;;;11.64;100.00;99049.66;2089501;28;20302;-77
2021/08/03 04:32:00;;;;;;;30.77;24.25;;;;;;;11.64;100.00;99045.13;2089747;28;20238;-78
2021/08/03 04:33:02;;;;;;;26.00;23.60;;;;;;;11.66;100.00;99040.25;2089660;28;20695;-77
2021/08/03 04:34:03;;;;;;;26.90;24.27;;;;;;;11.68;100.00;99046.09;2088705;28;20230;-77
2021/08/03 04:35:06;;;;;;;26.70;24.10;;;;;;;11.71;100.00;99036.66;2088851;28;20227;-78
2021/08/03 04:36:08;;;;;;;27.10;24.50;;;;;;;11.71;100.00;99042.78;2089077;28;20250;-75
2021/08/03 04:37:09;;;;;;;27.95;25.15;;;;;;;11.72;100.00;99040.91;2089218;28;20238;-77
2021/08/03 04:38:10;;;;;;;27.38;24.55;;;;;;;11.77;100.00;99043.47;2088707;28;20654;-77
2021/08/03 04:39:12;;;;;;;27.57;24.93;;;;;;;11.76;100.00;99040.00;2088889;28;20269;-78
2021/08/03 04:40:14;;;;;;;28.42;25.52;;;;;;;11.78;100.00;99045.06;2089559;28;20222;-77
2021/08/03 04:41:16;;;;;;;28.98;24.73;;;;;;;11.79;100.00;99042.06;2089078;28;20708;-77
2021/08/03 04:42:16;;;;;;;28.35;25.45;;;;;;;11.81;100.00;99044.47;2088755;28;20569;-77
2021/08/03 04:43:18;;;;;;;28.63;25.47;;;;;;;11.82;100.00;99041.50;2089520;28;20245;-78
2021/08/03 04:44:18;;;;;;;27.70;24.95;;;;;;;11.85;100.00;99038.22;2089429;28;20249;-77
2021/08/03 04:45:20;;;;;;;30.73;25.73;;;;;;;11.84;100.00;99033.97;2089462;28;20226;-77
2021/08/03 04:46:21;;;;;;;27.70;25.00;;;;;;;11.84;100.00;99036.66;2089472;28;20230;-77
2021/08/03 04:47:22;;;;;;;27.23;24.40;;;;;;;11.91;100.00;99032.75;2088232;28;20309;-75
2021/08/03 04:48:23;;;;;;;27.17;24.30;;;;;;;11.91;100.00;99033.53;2088669;28;20268;-78
2021/08/03 04:49:25;;;;;;;27.70;24.83;;;;;;;11.95;100.00;99034.50;2088585;28;20572;-77
2021/08/03 04:50:27;;;;;;;27.02;24.52;;;;;;;11.94;100.00;99027.59;2088635;28;20222;-77
2021/08/03 04:51:30;;;;;;;27.52;24.90;;;;;;;11.99;100.00;99040.03;2080601;28;20215;-77